Terminal Aerodrome Forecast
Issued by NWS Twin Cities, MN

Home | Current Version | Previous Version | Graphics & Text | Print | Product List | Glossary Off
Versions: 1 2 3 4 5 6 7 8 9 10 11 12 13 14 15 16 17 18 19 20 21 22 23

000
FTUS43 KMPX 211100 RRA
TAFSTC
TAF
KSTC 211139Z 2112/2212 32010KT P6SM SCT025 OVC040
      TEMPO 2112/2116 BKN025
     FM211600 34013G20KT P6SM SCT040 BKN070
     FM212000 34009KT P6SM SCT080
     FM220200 VRB03KT P6SM SKC=

USA.gov is the U.S. government's official web portal to all federal, state and local government web resources and services.